sensor_id;sensor_type;location;lat;lon;timestamp;pressure;altitude;pressure_sealevel;temperature;humidity
40285;BME280;25997;50.214;19.354;2023-03-18T00:02:35;97979.41;;;3.15;34.52
40285;BME280;25997;50.214;19.354;2023-03-18T00:05:38;97978.31;;;3.12;34.49
40285;BME280;25997;50.214;19.354;2023-03-18T00:08:41;97975.47;;;3.07;34.67
40285;BME280;25997;50.214;19.354;2023-03-18T00:11:45;97984.41;;;3.12;34.78
40285;BME280;25997;50.214;19.354;2023-03-18T00:14:49;97985.97;;;3.09;34.59
40285;BME280;25997;50.214;19.354;2023-03-18T00:17:52;97984.50;;;2.98;34.85
40285;BME280;25997;50.214;19.354;2023-03-18T00:20:54;97987.88;;;2.97;34.94
40285;BME280;25997;50.214;19.354;2023-03-18T00:23:58;97994.94;;;2.99;34.94
40285;BME280;25997;50.214;19.354;2023-03-18T00:27:01;97986.06;;;2.96;34.80
40285;BME280;25997;50.214;19.354;2023-03-18T00:30:07;97982.94;;;3.01;34.78
40285;BME280;25997;50.214;19.354;2023-03-18T00:33:10;97981.31;;;3.03;34.85
40285;BME280;25997;50.214;19.354;2023-03-18T00:36:13;97982.28;;;3.05;34.81
40285;BME280;25997;50.214;19.354;2023-03-18T00:39:16;97975.22;;;3.03;34.76
40285;BME280;25997;50.214;19.354;2023-03-18T00:42:26;97976.06;;;3.02;34.82
40285;BME280;25997;50.214;19.354;2023-03-18T00:45:37;97969.31;;;3.05;35.55
40285;BME280;25997;50.214;19.354;2023-03-18T00:48:40;97951.88;;;2.87;34.58
40285;BME280;25997;50.214;19.354;2023-03-18T00:51:42;97953.22;;;2.80;35.06
40285;BME280;25997;50.214;19.354;2023-03-18T00:54:45;97950.88;;;2.85;34.91
40285;BME280;25997;50.214;19.354;2023-03-18T00:57:47;97946.69;;;2.87;35.15
40285;BME280;25997;50.214;19.354;2023-03-18T01:00:51;97940.78;;;2.89;35.34
40285;BME280;25997;50.214;19.354;2023-03-18T01:03:54;97937.22;;;2.87;35.16
40285;BME280;25997;50.214;19.354;2023-03-18T01:06:56;97929.09;;;2.81;35.28
40285;BME280;25997;50.214;19.354;2023-03-18T01:09:59;97929.78;;;2.62;35.34
40285;BME280;25997;50.214;19.354;2023-03-18T01:13:02;97924.66;;;2.48;35.41
40285;BME280;25997;50.214;19.354;2023-03-18T01:16:07;97915.22;;;2.34;35.79
40285;BME280;25997;50.214;19.354;2023-03-18T01:19:09;97921.16;;;2.17;35.91
40285;BME280;25997;50.214;19.354;2023-03-18T01:22:12;97918.97;;;2.08;36.12
40285;BME280;25997;50.214;19.354;2023-03-18T01:25:20;97915.22;;;2.03;36.35
40285;BME280;25997;50.214;19.354;2023-03-18T01:28:26;97918.34;;;1.97;36.31
40285;BME280;25997;50.214;19.354;2023-03-18T01:31:30;97910.09;;;2.05;36.43
40285;BME280;25997;50.214;19.354;2023-03-18T01:34:40;97910.88;;;2.18;36.08
40285;BME280;25997;50.214;19.354;2023-03-18T01:37:43;97914.09;;;2.29;36.14
40285;BME280;25997;50.214;19.354;2023-03-18T01:40:47;97905.97;;;2.23;36.23
40285;BME280;25997;50.214;19.354;2023-03-18T01:43:54;97916.97;;;2.19;36.47
40285;BME280;25997;50.214;19.354;2023-03-18T01:46:58;97908.16;;;2.15;36.52
40285;BME280;25997;50.214;19.354;2023-03-18T01:50:03;97913.31;;;2.15;36.74
40285;BME280;25997;50.214;19.354;2023-03-18T01:53:08;97916.38;;;2.08;36.65
40285;BME280;25997;50.214;19.354;2023-03-18T01:56:12;97920.19;;;2.00;36.84
40285;BME280;25997;50.214;19.354;2023-03-18T01:59:17;97909.69;;;1.97;36.67
40285;BME280;25997;50.214;19.354;2023-03-18T02:02:23;97910.84;;;2.02;36.80
40285;BME280;25997;50.214;19.354;2023-03-18T02:05:27;97904.94;;;2.05;36.50
40285;BME280;25997;50.214;19.354;2023-03-18T02:08:30;97913.19;;;1.97;36.76
40285;BME280;25997;50.214;19.354;2023-03-18T02:11:37;97902.44;;;1.91;36.71
40285;BME280;25997;50.214;19.354;2023-03-18T02:14:41;97903.09;;;1.87;36.86
40285;BME280;25997;50.214;19.354;2023-03-18T02:17:48;97914.88;;;1.82;36.83
40285;BME280;25997;50.214;19.354;2023-03-18T02:21:07;97910.16;;;1.75;37.01
40285;BME280;25997;50.214;19.354;2023-03-18T02:24:21;97904.63;;;1.69;37.11
40285;BME280;25997;50.214;19.354;2023-03-18T02:27:28;97906.34;;;1.69;37.01
40285;BME280;25997;50.214;19.354;2023-03-18T02:30:35;97896.50;;;1.63;37.10
40285;BME280;25997;50.214;19.354;2023-03-18T02:33:41;97897.41;;;1.64;37.14
40285;BME280;25997;50.214;19.354;2023-03-18T02:36:45;97894.63;;;1.61;37.11
40285;BME280;25997;50.214;19.354;2023-03-18T02:39:47;97900.72;;;1.61;37.00
40285;BME280;25997;50.214;19.354;2023-03-18T02:42:51;97898.91;;;1.60;37.23
40285;BME280;25997;50.214;19.354;2023-03-18T02:46:03;97899.09;;;1.63;37.31
40285;BME280;25997;50.214;19.354;2023-03-18T02:49:07;97897.41;;;1.64;37.15
40285;BME280;25997;50.214;19.354;2023-03-18T02:52:11;97895.53;;;1.61;37.20
40285;BME280;25997;50.214;19.354;2023-03-18T02:55:13;97896.78;;;1.53;37.53
40285;BME280;25997;50.214;19.354;2023-03-18T02:58:17;97888.50;;;1.44;37.48
40285;BME280;25997;50.214;19.354;2023-03-18T03:01:22;97892.03;;;1.32;37.63
40285;BME280;25997;50.214;19.354;2023-03-18T03:04:25;97898.09;;;1.17;37.94
40285;BME280;25997;50.214;19.354;2023-03-18T03:07:28;97892.53;;;1.11;38.13
40285;BME280;25997;50.214;19.354;2023-03-18T03:10:32;97891.41;;;1.06;38.05
40285;BME280;25997;50.214;19.354;2023-03-18T03:13:37;97887.84;;;1.04;38.10
40285;BME280;25997;50.214;19.354;2023-03-18T03:16:42;97890.59;;;1.07;38.02
40285;BME280;25997;50.214;19.354;2023-03-18T03:19:45;97896.31;;;1.16;38.07
40285;BME280;25997;50.214;19.354;2023-03-18T03:22:48;97893.03;;;1.19;38.16
40285;BME280;25997;50.214;19.354;2023-03-18T03:25:51;97896.31;;;1.16;37.91
40285;BME280;25997;50.214;19.354;2023-03-18T03:28:56;97896.75;;;1.09;38.11
40285;BME280;25997;50.214;19.354;2023-03-18T03:31:58;97904.34;;;1.06;38.43
40285;BME280;25997;50.214;19.354;2023-03-18T03:35:02;97908.41;;;1.03;38.27
40285;BME280;25997;50.214;19.354;2023-03-18T03:38:05;97911.00;;;1.03;38.40
40285;BME280;25997;50.214;19.354;2023-03-18T03:41:08;97903.94;;;1.00;38.46
40285;BME280;25997;50.214;19.354;2023-03-18T03:44:13;97906.63;;;1.02;38.53
40285;BME280;25997;50.214;19.354;2023-03-18T03:47:15;97907.41;;;1.01;38.45
40285;BME280;25997;50.214;19.354;2023-03-18T03:50:18;97907.22;;;0.98;38.62
40285;BME280;25997;50.214;19.354;2023-03-18T03:53:21;97908.47;;;0.90;38.80
40285;BME280;25997;50.214;19.354;2023-03-18T03:56:25;97915.94;;;0.85;38.61
40285;BME280;25997;50.214;19.354;2023-03-18T03:59:29;97916.56;;;0.81;38.87
40285;BME280;25997;50.214;19.354;2023-03-18T04:02:54;97916.19;;;0.75;39.00
40285;BME280;25997;50.214;19.354;2023-03-18T04:05:58;97913.03;;;0.66;38.75
40285;BME280;25997;50.214;19.354;2023-03-18T04:09:04;97907.94;;;0.68;39.10
40285;BME280;25997;50.214;19.354;2023-03-18T04:12:07;97907.34;;;0.72;39.20
40285;BME280;25997;50.214;19.354;2023-03-18T04:15:15;97919.91;;;0.80;38.88
40285;BME280;25997;50.214;19.354;2023-03-18T04:18:20;97915.75;;;0.82;39.07
40285;BME280;25997;50.214;19.354;2023-03-18T04:21:23;97911.47;;;0.83;38.94
40285;BME280;25997;50.214;19.354;2023-03-18T04:24:28;97903.63;;;0.81;38.89
40285;BME280;25997;50.214;19.354;2023-03-18T04:27:31;97909.78;;;0.83;39.11
40285;BME280;25997;50.214;19.354;2023-03-18T04:30:40;97914.16;;;0.84;39.03
40285;BME280;25997;50.214;19.354;2023-03-18T04:33:48;97912.09;;;0.79;39.06
40285;BME280;25997;50.214;19.354;2023-03-18T04:36:50;97919.84;;;0.79;39.17
40285;BME280;25997;50.214;19.354;2023-03-18T04:39:54;97909.16;;;0.87;38.88
40285;BME280;25997;50.214;19.354;2023-03-18T04:42:57;97919.16;;;0.96;38.63
40285;BME280;25997;50.214;19.354;2023-03-18T04:46:03;97906.16;;;0.94;38.92
40285;BME280;25997;50.214;19.354;2023-03-18T04:49:08;97911.25;;;0.93;38.94
40285;BME280;25997;50.214;19.354;2023-03-18T04:52:11;97912.31;;;0.96;39.01
40285;BME280;25997;50.214;19.354;2023-03-18T04:55:14;97908.13;;;0.98;39.11
40285;BME280;25997;50.214;19.354;2023-03-18T04:58:20;97914.91;;;0.96;39.09
40285;BME280;25997;50.214;19.354;2023-03-18T05:01:44;97914.28;;;1.00;39.11
40285;BME280;25997;50.214;19.354;2023-03-18T05:04:50;97914.56;;;1.05;38.85
40285;BME280;25997;50.214;19.354;2023-03-18T05:07:53;97917.34;;;1.08;38.77
40285;BME280;25997;50.214;19.354;2023-03-18T05:10:57;97920.81;;;1.08;39.24
40285;BME280;25997;50.214;19.354;2023-03-18T05:13:59;97928.75;;;1.11;39.26
40285;BME280;25997;50.214;19.354;2023-03-18T05:17:08;97930.81;;;1.17;39.11
40285;BME280;25997;50.214;19.354;2023-03-18T05:20:17;97935.44;;;1.22;38.85
40285;BME280;25997;50.214;19.354;2023-03-18T05:23:21;97929.06;;;1.31;38.93
40285;BME280;25997;50.214;19.354;2023-03-18T05:26:28;97932.50;;;1.31;39.10
40285;BME280;25997;50.214;19.354;2023-03-18T05:29:31;97933.25;;;1.29;39.21
40285;BME280;25997;50.214;19.354;2023-03-18T05:32:47;97927.09;;;1.27;39.30
40285;BME280;25997;50.214;19.354;2023-03-18T05:35:51;97937.75;;;1.18;39.75
40285;BME280;25997;50.214;19.354;2023-03-18T05:38:58;97936.59;;;1.13;39.71
40285;BME280;25997;50.214;19.354;2023-03-18T05:42:01;97932.75;;;1.06;39.90
40285;BME280;25997;50.214;19.354;2023-03-18T05:45:06;97936.78;;;1.16;39.87
40285;BME280;25997;50.214;19.354;2023-03-18T05:48:16;97942.63;;;1.27;39.66
40285;BME280;25997;50.214;19.354;2023-03-18T05:51:30;97936.19;;;1.35;39.72
40285;BME280;25997;50.214;19.354;2023-03-18T05:54:32;97934.06;;;1.42;39.46
40285;BME280;25997;50.214;19.354;2023-03-18T05:57:35;97946.03;;;1.55;39.80
40285;BME280;25997;50.214;19.354;2023-03-18T06:00:42;97946.03;;;1.69;39.45
40285;BME280;25997;50.214;19.354;2023-03-18T06:03:47;97947.00;;;1.71;39.45
40285;BME280;25997;50.214;19.354;2023-03-18T06:06:50;97944.69;;;1.76;39.76
40285;BME280;25997;50.214;19.354;2023-03-18T06:09:53;97949.34;;;1.81;39.71
40285;BME280;25997;50.214;19.354;2023-03-18T06:12:55;97944.56;;;1.89;39.70
40285;BME280;25997;50.214;19.354;2023-03-18T06:15:59;97941.72;;;1.99;39.65
40285;BME280;25997;50.214;19.354;2023-03-18T06:19:05;97953.41;;;2.07;39.64
40285;BME280;25997;50.214;19.354;2023-03-18T06:22:08;97949.56;;;2.15;39.59
40285;BME280;25997;50.214;19.354;2023-03-18T06:25:11;97942.22;;;2.23;39.40
40285;BME280;25997;50.214;19.354;2023-03-18T06:28:14;97953.09;;;2.32;39.54
40285;BME280;25997;50.214;19.354;2023-03-18T06:31:17;97948.63;;;2.44;39.42
40285;BME280;25997;50.214;19.354;2023-03-18T06:34:21;97949.19;;;2.54;39.57
40285;BME280;25997;50.214;19.354;2023-03-18T06:37:24;97950.69;;;2.65;39.45
40285;BME280;25997;50.214;19.354;2023-03-18T06:40:26;97960.38;;;2.84;39.19
40285;BME280;25997;50.214;19.354;2023-03-18T06:43:30;97962.19;;;3.01;38.95
40285;BME280;25997;50.214;19.354;2023-03-18T06:46:34;97956.19;;;3.18;39.25
40285;BME280;25997;50.214;19.354;2023-03-18T06:49:39;97964.84;;;3.51;39.06
40285;BME280;25997;50.214;19.354;2023-03-18T06:52:48;97959.38;;;3.79;38.74
40285;BME280;25997;50.214;19.354;2023-03-18T06:55:58;97966.84;;;4.06;38.46
40285;BME280;25997;50.214;19.354;2023-03-18T06:59:09;97962.47;;;4.23;38.42
40285;BME280;25997;50.214;19.354;2023-03-18T07:02:12;97970.28;;;4.41;38.37
40285;BME280;25997;50.214;19.354;2023-03-18T07:05:17;97976.41;;;4.60;38.31
40285;BME280;25997;50.214;19.354;2023-03-18T07:08:20;97976.88;;;4.87;38.20
40285;BME280;25997;50.214;19.354;2023-03-18T07:11:23;97984.25;;;5.15;37.90
40285;BME280;25997;50.214;19.354;2023-03-18T07:14:27;97980.31;;;5.42;37.96
40285;BME280;25997;50.214;19.354;2023-03-18T07:17:29;97994.31;;;5.64;37.62
40285;BME280;25997;50.214;19.354;2023-03-18T07:20:33;97996.72;;;5.79;36.87
40285;BME280;25997;50.214;19.354;2023-03-18T07:23:36;98012.41;;;5.81;36.01
40285;BME280;25997;50.214;19.354;2023-03-18T07:26:39;98008.91;;;5.99;35.65
40285;BME280;25997;50.214;19.354;2023-03-18T07:29:43;98008.16;;;6.22;35.24
40285;BME280;25997;50.214;19.354;2023-03-18T07:32:46;98003.69;;;6.39;34.56
40285;BME280;25997;50.214;19.354;2023-03-18T07:35:50;98004.25;;;6.53;34.56
40285;BME280;25997;50.214;19.354;2023-03-18T07:38:53;98012.03;;;6.73;34.10
40285;BME280;25997;50.214;19.354;2023-03-18T07:41:56;97998.97;;;6.94;33.98
40285;BME280;25997;50.214;19.354;2023-03-18T07:45:04;97995.94;;;7.05;33.60
40285;BME280;25997;50.214;19.354;2023-03-18T07:48:06;97995.72;;;7.22;33.56
40285;BME280;25997;50.214;19.354;2023-03-18T07:51:10;97990.28;;;7.39;33.21
40285;BME280;25997;50.214;19.354;2023-03-18T07:54:12;97993.34;;;7.51;33.05
40285;BME280;25997;50.214;19.354;2023-03-18T07:57:15;97995.53;;;7.63;32.56
40285;BME280;25997;50.214;19.354;2023-03-18T08:00:18;98000.34;;;7.74;32.68
40285;BME280;25997;50.214;19.354;2023-03-18T08:03:21;98004.13;;;7.82;32.51
40285;BME280;25997;50.214;19.354;2023-03-18T08:06:25;98003.78;;;7.97;32.26
40285;BME280;25997;50.214;19.354;2023-03-18T08:09:27;98000.28;;;7.97;32.11
40285;BME280;25997;50.214;19.354;2023-03-18T08:12:30;97999.97;;;8.13;31.96
40285;BME280;25997;50.214;19.354;2023-03-18T08:15:33;98011.94;;;8.31;31.64
40285;BME280;25997;50.214;19.354;2023-03-18T08:18:35;98006.66;;;8.55;31.89
40285;BME280;25997;50.214;19.354;2023-03-18T08:21:39;97999.41;;;8.73;31.26
40285;BME280;25997;50.214;19.354;2023-03-18T08:24:42;98004.06;;;8.82;30.70
40285;BME280;25997;50.214;19.354;2023-03-18T08:27:45;97991.44;;;8.95;30.74
40285;BME280;25997;50.214;19.354;2023-03-18T08:30:53;97999.81;;;9.12;28.87
40285;BME280;25997;50.214;19.354;2023-03-18T08:33:56;98005.50;;;9.27;29.56
40285;BME280;25997;50.214;19.354;2023-03-18T08:37:01;97997.13;;;9.39;29.22
40285;BME280;25997;50.214;19.354;2023-03-18T08:40:05;97999.78;;;9.40;28.30
40285;BME280;25997;50.214;19.354;2023-03-18T08:43:09;97998.03;;;9.39;28.43
40285;BME280;25997;50.214;19.354;2023-03-18T08:46:12;97999.56;;;9.62;28.22
40285;BME280;25997;50.214;19.354;2023-03-18T08:49:15;98004.13;;;9.68;27.99
40285;BME280;25997;50.214;19.354;2023-03-18T08:52:19;98001.78;;;9.78;27.65
40285;BME280;25997;50.214;19.354;2023-03-18T08:55:22;98000.34;;;9.89;27.62
40285;BME280;25997;50.214;19.354;2023-03-18T08:58:25;97993.84;;;10.05;26.83
40285;BME280;25997;50.214;19.354;2023-03-18T09:01:27;97996.97;;;9.93;26.27
40285;BME280;25997;50.214;19.354;2023-03-18T09:04:30;97987.69;;;10.05;26.41
40285;BME280;25997;50.214;19.354;2023-03-18T09:07:34;97997.84;;;10.24;26.01
40285;BME280;25997;50.214;19.354;2023-03-18T09:10:36;97994.59;;;10.34;26.45
40285;BME280;25997;50.214;19.354;2023-03-18T09:13:39;97996.75;;;10.48;25.96
40285;BME280;25997;50.214;19.354;2023-03-18T09:16:42;97990.28;;;10.70;25.72
40285;BME280;25997;50.214;19.354;2023-03-18T09:19:46;97993.00;;;10.73;25.79
40285;BME280;25997;50.214;19.354;2023-03-18T09:22:49;97992.72;;;10.62;25.25
40285;BME280;25997;50.214;19.354;2023-03-18T09:25:52;97990.53;;;10.79;25.38
40285;BME280;25997;50.214;19.354;2023-03-18T09:28:57;97982.44;;;11.07;25.53
40285;BME280;25997;50.214;19.354;2023-03-18T09:31:59;97984.13;;;11.05;24.88
40285;BME280;25997;50.214;19.354;2023-03-18T09:35:02;97983.88;;;10.95;24.53
40285;BME280;25997;50.214;19.354;2023-03-18T09:38:05;97983.78;;;10.90;24.33
40285;BME280;25997;50.214;19.354;2023-03-18T09:41:20;97994.03;;;10.80;24.09
40285;BME280;25997;50.214;19.354;2023-03-18T09:44:29;97983.03;;;10.96;24.16
40285;BME280;25997;50.214;19.354;2023-03-18T09:47:53;97995.22;;;11.28;23.88
40285;BME280;25997;50.214;19.354;2023-03-18T09:51:06;97983.50;;;11.54;24.46
40285;BME280;25997;50.214;19.354;2023-03-18T09:54:18;97987.75;;;11.89;24.36
40285;BME280;25997;50.214;19.354;2023-03-18T09:57:29;97984.53;;;12.04;24.15
40285;BME280;25997;50.214;19.354;2023-03-18T10:00:35;97982.34;;;12.27;24.36
40285;BME280;25997;50.214;19.354;2023-03-18T10:03:41;97969.56;;;12.46;24.12
40285;BME280;25997;50.214;19.354;2023-03-18T10:06:47;97967.41;;;12.75;24.07
40285;BME280;25997;50.214;19.354;2023-03-18T10:09:57;97966.19;;;13.07;24.23
40285;BME280;25997;50.214;19.354;2023-03-18T10:13:02;97965.22;;;13.63;22.08
40285;BME280;25997;50.214;19.354;2023-03-18T10:16:14;97961.84;;;13.75;23.76
40285;BME280;25997;50.214;19.354;2023-03-18T10:19:19;97957.81;;;14.04;24.38
40285;BME280;25997;50.214;19.354;2023-03-18T10:22:42;97963.63;;;14.57;22.75
40285;BME280;25997;50.214;19.354;2023-03-18T10:25:54;97960.38;;;14.84;23.67
40285;BME280;25997;50.214;19.354;2023-03-18T10:32:30;97956.25;;;15.22;22.43
40285;BME280;25997;50.214;19.354;2023-03-18T10:35:39;97955.63;;;15.70;23.18
40285;BME280;25997;50.214;19.354;2023-03-18T10:38:46;97956.47;;;15.64;21.90
40285;BME280;25997;50.214;19.354;2023-03-18T10:41:52;97951.34;;;16.10;22.17
40285;BME280;25997;50.214;19.354;2023-03-18T10:45:04;97960.31;;;16.51;21.45
40285;BME280;25997;50.214;19.354;2023-03-18T10:48:13;97955.00;;;16.54;20.30
40285;BME280;25997;50.214;19.354;2023-03-18T10:51:21;97953.25;;;16.79;21.28
40285;BME280;25997;50.214;19.354;2023-03-18T10:54:30;97960.28;;;16.56;20.20
40285;BME280;25997;50.214;19.354;2023-03-18T10:57:38;97947.94;;;16.59;20.10
40285;BME280;25997;50.214;19.354;2023-03-18T11:00:41;97953.22;;;16.55;19.92
40285;BME280;25997;50.214;19.354;2023-03-18T11:03:47;97941.72;;;16.60;19.91
40285;BME280;25997;50.214;19.354;2023-03-18T11:06:54;97944.41;;;16.71;20.00
40285;BME280;25997;50.214;19.354;2023-03-18T11:10:11;97947.91;;;17.04;19.45
40285;BME280;25997;50.214;19.354;2023-03-18T11:13:17;97934.69;;;16.86;18.31
40285;BME280;25997;50.214;19.354;2023-03-18T11:16:25;97933.78;;;16.45;18.51
40285;BME280;25997;50.214;19.354;2023-03-18T11:19:31;97942.53;;;16.29;18.86
40285;BME280;25997;50.214;19.354;2023-03-18T11:22:43;97936.38;;;16.28;18.64
40285;BME280;25997;50.214;19.354;2023-03-18T11:25:47;97926.72;;;16.86;19.70
40285;BME280;25997;50.214;19.354;2023-03-18T11:28:53;97933.56;;;17.78;19.24
40285;BME280;25997;50.214;19.354;2023-03-18T11:31:57;97926.41;;;18.04;18.53
40285;BME280;25997;50.214;19.354;2023-03-18T11:35:01;97919.00;;;18.51;18.71
40285;BME280;25997;50.214;19.354;2023-03-18T11:38:04;97921.88;;;18.18;18.12
40285;BME280;25997;50.214;19.354;2023-03-18T11:41:10;97905.16;;;18.03;18.30
40285;BME280;25997;50.214;19.354;2023-03-18T11:44:18;97916.66;;;18.05;18.15
40285;BME280;25997;50.214;19.354;2023-03-18T11:47:23;97904.03;;;18.38;18.20
40285;BME280;25997;50.214;19.354;2023-03-18T11:50:35;97905.16;;;18.04;15.96
40285;BME280;25997;50.214;19.354;2023-03-18T11:53:54;97900.78;;;17.91;17.02
40285;BME280;25997;50.214;19.354;2023-03-18T11:57:02;97898.25;;;17.59;17.38
40285;BME280;25997;50.214;19.354;2023-03-18T12:00:22;97895.50;;;17.80;17.21
40285;BME280;25997;50.214;19.354;2023-03-18T12:03:50;97894.59;;;17.83;16.37
40285;BME280;25997;50.214;19.354;2023-03-18T12:07:06;97897.22;;;17.92;17.02
40285;BME280;25997;50.214;19.354;2023-03-18T12:10:23;97888.34;;;18.02;17.20
40285;BME280;25997;50.214;19.354;2023-03-18T12:13:34;97887.47;;;17.92;16.72
40285;BME280;25997;50.214;19.354;2023-03-18T12:16:53;97883.59;;;18.45;16.81
40285;BME280;25997;50.214;19.354;2023-03-18T12:23:52;97886.13;;;18.61;15.47
40285;BME280;25997;50.214;19.354;2023-03-18T12:27:02;97883.06;;;17.87;15.87
40285;BME280;25997;50.214;19.354;2023-03-18T12:30:18;97872.44;;;17.90;16.89
40285;BME280;25997;50.214;19.354;2023-03-18T12:33:42;97881.47;;;17.51;16.03
40285;BME280;25997;50.214;19.354;2023-03-18T12:36:58;97877.19;;;17.06;15.95
40285;BME280;25997;50.214;19.354;2023-03-18T12:40:22;97878.03;;;17.14;15.59
40285;BME280;25997;50.214;19.354;2023-03-18T12:43:46;97883.38;;;16.87;16.60
40285;BME280;25997;50.214;19.354;2023-03-18T12:46:55;97884.28;;;16.79;16.28
40285;BME280;25997;50.214;19.354;2023-03-18T12:50:03;97886.06;;;16.75;16.38
40285;BME280;25997;50.214;19.354;2023-03-18T12:53:11;97889.59;;;16.65;16.41
40285;BME280;25997;50.214;19.354;2023-03-18T12:56:19;97884.31;;;16.77;16.95
40285;BME280;25997;50.214;19.354;2023-03-18T12:59:28;97880.69;;;17.28;16.36
40285;BME280;25997;50.214;19.354;2023-03-18T13:02:38;97875.31;;;17.42;16.75
40285;BME280;25997;50.214;19.354;2023-03-18T13:05:48;97873.16;;;18.16;16.74
40285;BME280;25997;50.214;19.354;2023-03-18T13:09:01;97878.31;;;18.42;16.39
40285;BME280;25997;50.214;19.354;2023-03-18T13:12:09;97873.91;;;18.39;15.74
40285;BME280;25997;50.214;19.354;2023-03-18T13:15:20;97871.03;;;18.68;15.98
40285;BME280;25997;50.214;19.354;2023-03-18T13:18:30;97865.66;;;18.71;15.66
40285;BME280;25997;50.214;19.354;2023-03-18T13:21:40;97859.50;;;18.63;16.06
40285;BME280;25997;50.214;19.354;2023-03-18T13:24:55;97857.66;;;18.74;15.72
40285;BME280;25997;50.214;19.354;2023-03-18T13:28:15;97848.75;;;18.80;15.38
40285;BME280;25997;50.214;19.354;2023-03-18T13:31:35;97846.75;;;19.01;15.63
40285;BME280;25997;50.214;19.354;2023-03-18T13:35:24;97848.44;;;19.08;15.44
40285;BME280;25997;50.214;19.354;2023-03-18T13:38:53;97846.06;;;18.81;14.89
40285;BME280;25997;50.214;19.354;2023-03-18T13:42:19;97840.91;;;18.66;15.18
40285;BME280;25997;50.214;19.354;2023-03-18T13:45:27;97839.59;;;18.05;15.25
40285;BME280;25997;50.214;19.354;2023-03-18T13:48:33;97838.75;;;17.98;15.86
40285;BME280;25997;50.214;19.354;2023-03-18T13:51:54;97833.03;;;18.51;15.17
40285;BME280;25997;50.214;19.354;2023-03-18T13:55:02;97837.88;;;19.01;15.94
40285;BME280;25997;50.214;19.354;2023-03-18T13:58:21;97833.06;;;19.38;15.39
40285;BME280;25997;50.214;19.354;2023-03-18T14:01:27;97834.78;;;19.42;15.98
40285;BME280;25997;50.214;19.354;2023-03-18T14:04:49;97831.56;;;19.09;15.01
40285;BME280;25997;50.214;19.354;2023-03-18T14:07:54;97830.06;;;18.83;15.83
40285;BME280;25997;50.214;19.354;2023-03-18T14:18:00;97817.91;;;18.57;15.90
40285;BME280;25997;50.214;19.354;2023-03-18T14:21:04;97817.16;;;18.40;16.42
40285;BME280;25997;50.214;19.354;2023-03-18T14:24:11;97818.16;;;18.27;16.29
40285;BME280;25997;50.214;19.354;2023-03-18T14:27:17;97815.63;;;18.09;16.26
40285;BME280;25997;50.214;19.354;2023-03-18T14:30:42;97809.44;;;18.13;16.24
40285;BME280;25997;50.214;19.354;2023-03-18T14:33:57;97812.19;;;18.00;16.63
40285;BME280;25997;50.214;19.354;2023-03-18T14:37:19;97810.94;;;18.41;16.52
40285;BME280;25997;50.214;19.354;2023-03-18T14:40:25;97807.78;;;18.94;16.43
40285;BME280;25997;50.214;19.354;2023-03-18T14:43:31;97812.19;;;18.97;16.45
40285;BME280;25997;50.214;19.354;2023-03-18T14:46:40;97809.19;;;19.25;16.10
40285;BME280;25997;50.214;19.354;2023-03-18T14:49:47;97812.69;;;19.29;15.87
40285;BME280;25997;50.214;19.354;2023-03-18T14:52:54;97808.66;;;18.96;16.06
40285;BME280;25997;50.214;19.354;2023-03-18T14:56:00;97814.84;;;18.98;16.11
40285;BME280;25997;50.214;19.354;2023-03-18T14:59:03;97809.47;;;19.04;16.44
40285;BME280;25997;50.214;19.354;2023-03-18T15:02:20;97808.34;;;19.23;15.91
40285;BME280;25997;50.214;19.354;2023-03-18T15:05:24;97797.53;;;19.34;16.36
40285;BME280;25997;50.214;19.354;2023-03-18T15:08:28;97806.44;;;19.31;16.02
40285;BME280;25997;50.214;19.354;2023-03-18T15:11:36;97809.09;;;19.36;15.95
40285;BME280;25997;50.214;19.354;2023-03-18T15:14:40;97813.63;;;19.25;16.20
40285;BME280;25997;50.214;19.354;2023-03-18T15:17:47;97808.63;;;18.99;16.17
40285;BME280;25997;50.214;19.354;2023-03-18T15:20:52;97803.28;;;18.98;16.45
40285;BME280;25997;50.214;19.354;2023-03-18T15:23:58;97803.56;;;18.75;16.54
40285;BME280;25997;50.214;19.354;2023-03-18T15:27:04;97810.75;;;18.66;16.48
40285;BME280;25997;50.214;19.354;2023-03-18T15:30:23;97814.41;;;18.49;16.53
40285;BME280;25997;50.214;19.354;2023-03-18T15:33:33;97804.00;;;18.24;16.35
40285;BME280;25997;50.214;19.354;2023-03-18T15:36:40;97806.19;;;17.64;16.82
40285;BME280;25997;50.214;19.354;2023-03-18T15:39:43;97796.53;;;17.48;16.87
40285;BME280;25997;50.214;19.354;2023-03-18T15:42:46;97810.59;;;17.61;17.21
40285;BME280;25997;50.214;19.354;2023-03-18T15:45:52;97806.13;;;17.72;16.98
40285;BME280;25997;50.214;19.354;2023-03-18T15:48:59;97808.09;;;17.40;17.31
40285;BME280;25997;50.214;19.354;2023-03-18T15:52:02;97814.38;;;17.05;17.36
40285;BME280;25997;50.214;19.354;2023-03-18T15:55:25;97807.38;;;16.76;17.50
40285;BME280;25997;50.214;19.354;2023-03-18T15:58:35;97807.34;;;16.91;17.62
40285;BME280;25997;50.214;19.354;2023-03-18T16:01:38;97818.75;;;17.26;17.52
40285;BME280;25997;50.214;19.354;2023-03-18T16:04:42;97816.84;;;17.60;17.64
40285;BME280;25997;50.214;19.354;2023-03-18T16:07:46;97818.69;;;17.41;17.50
40285;BME280;25997;50.214;19.354;2023-03-18T16:10:51;97816.19;;;16.93;17.68
40285;BME280;25997;50.214;19.354;2023-03-18T16:13:54;97817.13;;;16.54;18.13
40285;BME280;25997;50.214;19.354;2023-03-18T16:16:57;97825.06;;;16.34;18.31
40285;BME280;25997;50.214;19.354;2023-03-18T16:20:01;97820.69;;;16.15;18.43
40285;BME280;25997;50.214;19.354;2023-03-18T16:23:06;97822.44;;;16.25;18.37
40285;BME280;25997;50.214;19.354;2023-03-18T16:26:13;97838.34;;;16.75;18.58
40285;BME280;25997;50.214;19.354;2023-03-18T16:29:20;97838.31;;;16.78;18.39
40285;BME280;25997;50.214;19.354;2023-03-18T16:32:27;97837.47;;;16.44;19.30
40285;BME280;25997;50.214;19.354;2023-03-18T16:35:33;97829.50;;;16.13;19.48
40285;BME280;25997;50.214;19.354;2023-03-18T16:38:35;97838.25;;;15.72;20.05